sensor_id;sensor_type;location;lat;lon;timestamp;temperature;humidity
43225;DHT22;28834;48.720;9.208;2022-07-29T00:00:36;18.60;99.90
43225;DHT22;28834;48.720;9.208;2022-07-29T00:03:02;18.60;99.90
43225;DHT22;28834;48.720;9.208;2022-07-29T00:05:28;18.60;99.90
43225;DHT22;28834;48.720;9.208;2022-07-29T00:07:54;18.60;99.90
43225;DHT22;28834;48.720;9.208;2022-07-29T00:10:20;18.60;99.90
43225;DHT22;28834;48.720;9.208;2022-07-29T00:12:45;18.60;99.90
43225;DHT22;28834;48.720;9.208;2022-07-29T00:15:11;18.60;99.90
43225;DHT22;28834;48.720;9.208;2022-07-29T00:17:37;18.50;99.90
43225;DHT22;28834;48.720;9.208;2022-07-29T00:20:03;18.50;99.90
43225;DHT22;28834;48.720;9.208;2022-07-29T00:22:29;18.50;99.90
43225;DHT22;28834;48.720;9.208;2022-07-29T00:24:54;18.50;99.90
43225;DHT22;28834;48.720;9.208;2022-07-29T00:27:20;18.50;99.90
43225;DHT22;28834;48.720;9.208;2022-07-29T00:29:45;18.50;99.90
43225;DHT22;28834;48.720;9.208;2022-07-29T00:32:11;18.50;99.90
43225;DHT22;28834;48.720;9.208;2022-07-29T00:34:37;18.50;99.90
43225;DHT22;28834;48.720;9.208;2022-07-29T00:37:21;18.50;99.90
43225;DHT22;28834;48.720;9.208;2022-07-29T00:39:46;18.40;99.90
43225;DHT22;28834;48.720;9.208;2022-07-29T00:42:12;18.40;99.90
43225;DHT22;28834;48.720;9.208;2022-07-29T00:44:39;18.40;99.90
43225;DHT22;28834;48.720;9.208;2022-07-29T00:47:05;18.40;99.90
43225;DHT22;28834;48.720;9.208;2022-07-29T00:49:32;18.30;99.90
43225;DHT22;28834;48.720;9.208;2022-07-29T00:51:57;18.30;99.90
43225;DHT22;28834;48.720;9.208;2022-07-29T00:54:23;18.30;99.90
43225;DHT22;28834;48.720;9.208;2022-07-29T00:56:49;18.30;99.90
43225;DHT22;28834;48.720;9.208;2022-07-29T00:59:15;18.30;99.90
43225;DHT22;28834;48.720;9.208;2022-07-29T01:01:40;18.30;99.90
43225;DHT22;28834;48.720;9.208;2022-07-29T01:04:06;18.30;99.90
43225;DHT22;28834;48.720;9.208;2022-07-29T01:06:32;18.20;99.90
43225;DHT22;28834;48.720;9.208;2022-07-29T01:08:59;18.20;99.90
43225;DHT22;28834;48.720;9.208;2022-07-29T01:11:25;18.20;99.90
43225;DHT22;28834;48.720;9.208;2022-07-29T01:13:51;18.10;99.90
43225;DHT22;28834;48.720;9.208;2022-07-29T01:16:39;18.10;99.90
43225;DHT22;28834;48.720;9.208;2022-07-29T01:22:35;18.00;99.90
43225;DHT22;28834;48.720;9.208;2022-07-29T01:31:08;18.00;99.90
43225;DHT22;28834;48.720;9.208;2022-07-29T01:33:40;18.00;99.90
43225;DHT22;28834;48.720;9.208;2022-07-29T01:36:37;18.00;99.90
43225;DHT22;28834;48.720;9.208;2022-07-29T01:39:24;18.00;99.90
43225;DHT22;28834;48.720;9.208;2022-07-29T01:42:09;17.90;99.90
43225;DHT22;28834;48.720;9.208;2022-07-29T01:44:45;17.80;99.90
43225;DHT22;28834;48.720;9.208;2022-07-29T01:47:15;17.80;99.90
43225;DHT22;28834;48.720;9.208;2022-07-29T01:49:47;17.80;99.90
43225;DHT22;28834;48.720;9.208;2022-07-29T01:52:27;17.80;99.90
43225;DHT22;28834;48.720;9.208;2022-07-29T01:54:58;17.70;99.90
43225;DHT22;28834;48.720;9.208;2022-07-29T01:57:27;17.80;99.90
43225;DHT22;28834;48.720;9.208;2022-07-29T01:59:56;17.80;99.90
43225;DHT22;28834;48.720;9.208;2022-07-29T02:02:23;17.80;99.90
43225;DHT22;28834;48.720;9.208;2022-07-29T02:04:50;17.80;99.90
43225;DHT22;28834;48.720;9.208;2022-07-29T02:07:19;17.80;99.90
43225;DHT22;28834;48.720;9.208;2022-07-29T02:09:47;17.80;99.90
43225;DHT22;28834;48.720;9.208;2022-07-29T02:12:14;17.70;99.90
43225;DHT22;28834;48.720;9.208;2022-07-29T02:14:45;17.70;99.90
43225;DHT22;28834;48.720;9.208;2022-07-29T02:17:13;17.60;99.90
43225;DHT22;28834;48.720;9.208;2022-07-29T02:19:43;17.60;99.90
43225;DHT22;28834;48.720;9.208;2022-07-29T02:22:11;17.60;99.90
43225;DHT22;28834;48.720;9.208;2022-07-29T02:24:37;17.50;99.90
43225;DHT22;28834;48.720;9.208;2022-07-29T02:27:05;17.50;99.90
43225;DHT22;28834;48.720;9.208;2022-07-29T02:29:32;17.50;99.90
43225;DHT22;28834;48.720;9.208;2022-07-29T02:31:59;17.50;99.90
43225;DHT22;28834;48.720;9.208;2022-07-29T02:34:27;17.50;99.90
43225;DHT22;28834;48.720;9.208;2022-07-29T02:36:54;17.60;99.90
43225;DHT22;28834;48.720;9.208;2022-07-29T02:39:21;17.60;99.90
43225;DHT22;28834;48.720;9.208;2022-07-29T02:41:52;17.60;99.90
43225;DHT22;28834;48.720;9.208;2022-07-29T02:44:21;17.60;99.90
43225;DHT22;28834;48.720;9.208;2022-07-29T02:52:35;17.60;99.90
43225;DHT22;28834;48.720;9.208;2022-07-29T02:55:33;17.60;99.90
43225;DHT22;28834;48.720;9.208;2022-07-29T02:58:25;17.60;99.90
43225;DHT22;28834;48.720;9.208;2022-07-29T03:00:55;17.60;99.90
43225;DHT22;28834;48.720;9.208;2022-07-29T03:03:22;17.60;99.90
43225;DHT22;28834;48.720;9.208;2022-07-29T03:05:56;17.60;99.90
43225;DHT22;28834;48.720;9.208;2022-07-29T03:08:23;17.50;99.90
43225;DHT22;28834;48.720;9.208;2022-07-29T03:10:49;17.40;99.90
43225;DHT22;28834;48.720;9.208;2022-07-29T03:13:16;17.40;99.90
43225;DHT22;28834;48.720;9.208;2022-07-29T03:15:43;17.30;99.90
43225;DHT22;28834;48.720;9.208;2022-07-29T03:18:09;17.30;99.90
43225;DHT22;28834;48.720;9.208;2022-07-29T03:20:36;17.30;99.90
43225;DHT22;28834;48.720;9.208;2022-07-29T03:23:02;17.20;99.90
43225;DHT22;28834;48.720;9.208;2022-07-29T03:25:28;17.20;99.90
43225;DHT22;28834;48.720;9.208;2022-07-29T03:27:54;17.20;99.90
43225;DHT22;28834;48.720;9.208;2022-07-29T03:30:19;17.10;99.90
43225;DHT22;28834;48.720;9.208;2022-07-29T03:32:45;17.10;99.90
43225;DHT22;28834;48.720;9.208;2022-07-29T03:35:10;17.10;99.90
43225;DHT22;28834;48.720;9.208;2022-07-29T03:37:36;17.10;99.90
43225;DHT22;28834;48.720;9.208;2022-07-29T03:40:05;17.10;99.90
43225;DHT22;28834;48.720;9.208;2022-07-29T03:42:34;17.10;99.90
43225;DHT22;28834;48.720;9.208;2022-07-29T03:45:05;17.20;99.90
43225;DHT22;28834;48.720;9.208;2022-07-29T03:47:31;17.20;99.90
43225;DHT22;28834;48.720;9.208;2022-07-29T03:50:06;17.20;99.90
43225;DHT22;28834;48.720;9.208;2022-07-29T03:52:32;17.10;99.90
43225;DHT22;28834;48.720;9.208;2022-07-29T03:54:59;17.10;99.90
43225;DHT22;28834;48.720;9.208;2022-07-29T03:57:27;17.10;99.90
43225;DHT22;28834;48.720;9.208;2022-07-29T03:59:54;17.10;99.90
43225;DHT22;28834;48.720;9.208;2022-07-29T04:02:20;17.10;99.90
43225;DHT22;28834;48.720;9.208;2022-07-29T04:04:46;17.00;99.90
43225;DHT22;28834;48.720;9.208;2022-07-29T04:07:13;17.00;99.90
43225;DHT22;28834;48.720;9.208;2022-07-29T04:09:39;17.00;99.90
43225;DHT22;28834;48.720;9.208;2022-07-29T04:12:05;17.00;99.90
43225;DHT22;28834;48.720;9.208;2022-07-29T04:14:32;17.00;99.90
43225;DHT22;28834;48.720;9.208;2022-07-29T04:16:59;17.00;99.90
43225;DHT22;28834;48.720;9.208;2022-07-29T04:19:25;17.00;99.90
43225;DHT22;28834;48.720;9.208;2022-07-29T04:21:50;17.00;99.90
43225;DHT22;28834;48.720;9.208;2022-07-29T04:24:16;17.00;99.90
43225;DHT22;28834;48.720;9.208;2022-07-29T04:26:42;17.00;99.90
43225;DHT22;28834;48.720;9.208;2022-07-29T04:29:08;17.00;99.90
43225;DHT22;28834;48.720;9.208;2022-07-29T04:31:34;17.00;99.90
43225;DHT22;28834;48.720;9.208;2022-07-29T04:33:59;17.10;99.90
43225;DHT22;28834;48.720;9.208;2022-07-29T04:36:25;17.10;99.90
43225;DHT22;28834;48.720;9.208;2022-07-29T04:38:51;17.10;99.90
43225;DHT22;28834;48.720;9.208;2022-07-29T04:41:16;17.10;99.90
43225;DHT22;28834;48.720;9.208;2022-07-29T04:43:42;17.10;99.90
43225;DHT22;28834;48.720;9.208;2022-07-29T04:46:07;17.10;99.90
43225;DHT22;28834;48.720;9.208;2022-07-29T04:48:33;17.20;99.90
43225;DHT22;28834;48.720;9.208;2022-07-29T04:50:59;17.20;99.90
43225;DHT22;28834;48.720;9.208;2022-07-29T04:53:25;17.20;99.90
43225;DHT22;28834;48.720;9.208;2022-07-29T04:55:51;17.30;99.90
43225;DHT22;28834;48.720;9.208;2022-07-29T04:58:17;17.30;99.90
43225;DHT22;28834;48.720;9.208;2022-07-29T05:00:42;17.40;99.90
43225;DHT22;28834;48.720;9.208;2022-07-29T05:03:08;17.40;99.90
43225;DHT22;28834;48.720;9.208;2022-07-29T05:05:33;17.40;99.90
43225;DHT22;28834;48.720;9.208;2022-07-29T05:07:59;17.40;99.90
43225;DHT22;28834;48.720;9.208;2022-07-29T05:10:25;17.40;99.90
43225;DHT22;28834;48.720;9.208;2022-07-29T05:12:51;17.50;99.90
43225;DHT22;28834;48.720;9.208;2022-07-29T05:15:16;17.60;99.90
43225;DHT22;28834;48.720;9.208;2022-07-29T05:17:43;17.70;99.90
43225;DHT22;28834;48.720;9.208;2022-07-29T05:20:09;17.70;99.90
43225;DHT22;28834;48.720;9.208;2022-07-29T05:22:35;17.80;99.90
43225;DHT22;28834;48.720;9.208;2022-07-29T05:25:00;17.90;99.90
43225;DHT22;28834;48.720;9.208;2022-07-29T05:27:26;17.90;99.90
43225;DHT22;28834;48.720;9.208;2022-07-29T05:29:52;18.00;99.90
43225;DHT22;28834;48.720;9.208;2022-07-29T05:32:17;18.00;99.90
43225;DHT22;28834;48.720;9.208;2022-07-29T05:34:43;18.00;99.90
43225;DHT22;28834;48.720;9.208;2022-07-29T05:37:08;18.10;99.90
43225;DHT22;28834;48.720;9.208;2022-07-29T05:39:34;18.20;99.90
43225;DHT22;28834;48.720;9.208;2022-07-29T05:41:59;18.30;99.90
43225;DHT22;28834;48.720;9.208;2022-07-29T05:44:25;18.30;99.90
43225;DHT22;28834;48.720;9.208;2022-07-29T05:46:51;18.40;99.90
43225;DHT22;28834;48.720;9.208;2022-07-29T05:49:16;18.50;99.90
43225;DHT22;28834;48.720;9.208;2022-07-29T05:51:42;18.60;99.90
43225;DHT22;28834;48.720;9.208;2022-07-29T05:54:07;18.70;99.90
43225;DHT22;28834;48.720;9.208;2022-07-29T05:56:33;18.70;99.90
43225;DHT22;28834;48.720;9.208;2022-07-29T05:58:58;18.70;99.90
43225;DHT22;28834;48.720;9.208;2022-07-29T06:01:24;18.80;99.90
43225;DHT22;28834;48.720;9.208;2022-07-29T06:03:50;18.90;99.90
43225;DHT22;28834;48.720;9.208;2022-07-29T06:06:15;18.90;99.90
43225;DHT22;28834;48.720;9.208;2022-07-29T06:08:41;19.00;99.90
43225;DHT22;28834;48.720;9.208;2022-07-29T06:11:12;19.00;99.90
43225;DHT22;28834;48.720;9.208;2022-07-29T06:13:37;19.10;99.90
43225;DHT22;28834;48.720;9.208;2022-07-29T06:16:03;19.20;99.90
43225;DHT22;28834;48.720;9.208;2022-07-29T06:18:29;19.20;99.90
43225;DHT22;28834;48.720;9.208;2022-07-29T06:20:55;19.30;99.90
43225;DHT22;28834;48.720;9.208;2022-07-29T06:23:20;19.30;99.90
43225;DHT22;28834;48.720;9.208;2022-07-29T06:25:46;19.40;99.90
43225;DHT22;28834;48.720;9.208;2022-07-29T06:28:12;19.50;99.90
43225;DHT22;28834;48.720;9.208;2022-07-29T06:30:39;19.70;99.90
43225;DHT22;28834;48.720;9.208;2022-07-29T06:33:04;19.80;99.90
43225;DHT22;28834;48.720;9.208;2022-07-29T06:35:32;19.90;99.90
43225;DHT22;28834;48.720;9.208;2022-07-29T06:37:58;20.00;99.90
43225;DHT22;28834;48.720;9.208;2022-07-29T06:40:23;20.10;99.90
43225;DHT22;28834;48.720;9.208;2022-07-29T06:43:08;20.20;99.90
43225;DHT22;28834;48.720;9.208;2022-07-29T06:45:34;20.20;99.90
43225;DHT22;28834;48.720;9.208;2022-07-29T06:48:00;20.30;99.90
43225;DHT22;28834;48.720;9.208;2022-07-29T06:50:25;20.40;99.90
43225;DHT22;28834;48.720;9.208;2022-07-29T06:52:51;20.60;99.90
43225;DHT22;28834;48.720;9.208;2022-07-29T06:55:17;20.80;99.90
43225;DHT22;28834;48.720;9.208;2022-07-29T06:57:45;20.90;99.90
43225;DHT22;28834;48.720;9.208;2022-07-29T07:00:11;20.90;99.90
43225;DHT22;28834;48.720;9.208;2022-07-29T07:02:36;21.00;99.90
43225;DHT22;28834;48.720;9.208;2022-07-29T07:05:02;21.00;99.90
43225;DHT22;28834;48.720;9.208;2022-07-29T07:07:28;20.90;99.90
43225;DHT22;28834;48.720;9.208;2022-07-29T07:09:53;20.90;99.90
43225;DHT22;28834;48.720;9.208;2022-07-29T07:12:19;20.90;99.90
43225;DHT22;28834;48.720;9.208;2022-07-29T07:14:44;20.90;99.90
43225;DHT22;28834;48.720;9.208;2022-07-29T07:17:10;21.00;99.90
43225;DHT22;28834;48.720;9.208;2022-07-29T07:19:36;21.10;99.90
43225;DHT22;28834;48.720;9.208;2022-07-29T07:22:01;21.10;99.90
43225;DHT22;28834;48.720;9.208;2022-07-29T07:24:27;21.20;99.90
43225;DHT22;28834;48.720;9.208;2022-07-29T07:26:53;21.30;99.90
43225;DHT22;28834;48.720;9.208;2022-07-29T07:29:18;21.40;99.90
43225;DHT22;28834;48.720;9.208;2022-07-29T07:31:44;21.40;99.90
43225;DHT22;28834;48.720;9.208;2022-07-29T07:34:09;21.50;99.90
43225;DHT22;28834;48.720;9.208;2022-07-29T07:36:35;21.50;99.90
43225;DHT22;28834;48.720;9.208;2022-07-29T07:39:00;21.40;99.90
43225;DHT22;28834;48.720;9.208;2022-07-29T07:41:26;21.30;99.90
43225;DHT22;28834;48.720;9.208;2022-07-29T07:43:52;21.30;99.90
43225;DHT22;28834;48.720;9.208;2022-07-29T07:46:17;21.40;99.90
43225;DHT22;28834;48.720;9.208;2022-07-29T07:48:43;21.70;99.90
43225;DHT22;28834;48.720;9.208;2022-07-29T07:51:08;21.90;99.90
43225;DHT22;28834;48.720;9.208;2022-07-29T07:53:34;22.20;99.90
43225;DHT22;28834;48.720;9.208;2022-07-29T07:56:00;22.50;99.90
43225;DHT22;28834;48.720;9.208;2022-07-29T07:58:26;22.60;99.90
43225;DHT22;28834;48.720;9.208;2022-07-29T08:00:51;22.70;99.90
43225;DHT22;28834;48.720;9.208;2022-07-29T08:03:17;22.70;99.90
43225;DHT22;28834;48.720;9.208;2022-07-29T08:05:43;22.70;99.90
43225;DHT22;28834;48.720;9.208;2022-07-29T08:08:12;22.80;99.90
43225;DHT22;28834;48.720;9.208;2022-07-29T08:10:37;23.00;99.90
43225;DHT22;28834;48.720;9.208;2022-07-29T08:13:20;23.30;99.90
43225;DHT22;28834;48.720;9.208;2022-07-29T08:15:46;23.50;99.90
43225;DHT22;28834;48.720;9.208;2022-07-29T08:18:12;23.90;99.90
43225;DHT22;28834;48.720;9.208;2022-07-29T08:20:38;24.10;99.90
43225;DHT22;28834;48.720;9.208;2022-07-29T08:23:06;24.10;99.90
43225;DHT22;28834;48.720;9.208;2022-07-29T08:25:35;24.10;99.90
43225;DHT22;28834;48.720;9.208;2022-07-29T08:28:01;24.00;99.90
43225;DHT22;28834;48.720;9.208;2022-07-29T08:30:26;24.20;99.90
43225;DHT22;28834;48.720;9.208;2022-07-29T08:32:52;24.40;99.90
43225;DHT22;28834;48.720;9.208;2022-07-29T08:35:19;24.40;99.90
43225;DHT22;28834;48.720;9.208;2022-07-29T08:37:45;24.70;99.90
43225;DHT22;28834;48.720;9.208;2022-07-29T08:40:11;24.90;99.90
43225;DHT22;28834;48.720;9.208;2022-07-29T08:42:37;25.10;99.90
43225;DHT22;28834;48.720;9.208;2022-07-29T08:45:03;25.30;99.90
43225;DHT22;28834;48.720;9.208;2022-07-29T08:47:30;25.30;99.90
43225;DHT22;28834;48.720;9.208;2022-07-29T08:49:55;25.10;99.90
43225;DHT22;28834;48.720;9.208;2022-07-29T08:52:23;25.20;99.90
43225;DHT22;28834;48.720;9.208;2022-07-29T08:54:52;25.00;99.90
43225;DHT22;28834;48.720;9.208;2022-07-29T08:57:19;25.10;99.90
43225;DHT22;28834;48.720;9.208;2022-07-29T08:59:46;25.10;99.90
43225;DHT22;28834;48.720;9.208;2022-07-29T09:02:23;25.30;99.90
43225;DHT22;28834;48.720;9.208;2022-07-29T09:04:50;25.50;99.90
43225;DHT22;28834;48.720;9.208;2022-07-29T09:07:17;25.60;99.90
43225;DHT22;28834;48.720;9.208;2022-07-29T09:09:43;25.80;99.90
43225;DHT22;28834;48.720;9.208;2022-07-29T09:12:10;25.90;98.90
43225;DHT22;28834;48.720;9.208;2022-07-29T09:14:39;25.90;99.90
43225;DHT22;28834;48.720;9.208;2022-07-29T09:17:06;26.00;99.70
43225;DHT22;28834;48.720;9.208;2022-07-29T09:19:34;26.00;98.90
43225;DHT22;28834;48.720;9.208;2022-07-29T09:22:02;25.80;99.70
43225;DHT22;28834;48.720;9.208;2022-07-29T09:24:42;25.60;97.60
43225;DHT22;28834;48.720;9.208;2022-07-29T09:27:10;25.50;99.90
43225;DHT22;28834;48.720;9.208;2022-07-29T09:29:36;25.50;99.10
43225;DHT22;28834;48.720;9.208;2022-07-29T09:32:07;25.60;99.20
43225;DHT22;28834;48.720;9.208;2022-07-29T09:34:34;25.60;99.90
43225;DHT22;28834;48.720;9.208;2022-07-29T09:37:00;25.50;98.00
43225;DHT22;28834;48.720;9.208;2022-07-29T09:39:35;25.50;97.40
43225;DHT22;28834;48.720;9.208;2022-07-29T09:42:04;25.60;97.60
43225;DHT22;28834;48.720;9.208;2022-07-29T09:44:46;25.80;98.80
43225;DHT22;28834;48.720;9.208;2022-07-29T09:47:13;26.10;98.30
43225;DHT22;28834;48.720;9.208;2022-07-29T09:49:58;26.20;97.10
43225;DHT22;28834;48.720;9.208;2022-07-29T09:52:26;26.40;96.40
43225;DHT22;28834;48.720;9.208;2022-07-29T09:54:52;26.60;96.00
43225;DHT22;28834;48.720;9.208;2022-07-29T09:57:27;26.70;94.90
43225;DHT22;28834;48.720;9.208;2022-07-29T10:00:14;26.50;97.10
43225;DHT22;28834;48.720;9.208;2022-07-29T10:02:42;26.20;98.00
43225;DHT22;28834;48.720;9.208;2022-07-29T10:05:25;26.10;96.50
43225;DHT22;28834;48.720;9.208;2022-07-29T10:07:55;26.10;99.00
43225;DHT22;28834;48.720;9.208;2022-07-29T10:10:24;26.10;96.60
43225;DHT22;28834;48.720;9.208;2022-07-29T10:13:01;26.40;95.40
43225;DHT22;28834;48.720;9.208;2022-07-29T10:15:31;26.70;95.10
43225;DHT22;28834;48.720;9.208;2022-07-29T10:17:58;26.90;92.70
43225;DHT22;28834;48.720;9.208;2022-07-29T10:20:25;26.90;92.70
43225;DHT22;28834;48.720;9.208;2022-07-29T10:22:52;26.90;93.00
43225;DHT22;28834;48.720;9.208;2022-07-29T10:25:19;26.70;93.00
43225;DHT22;28834;48.720;9.208;2022-07-29T10:27:46;26.50;93.60
43225;DHT22;28834;48.720;9.208;2022-07-29T10:30:12;26.30;93.70
43225;DHT22;28834;48.720;9.208;2022-07-29T10:38:55;25.70;95.40
43225;DHT22;28834;48.720;9.208;2022-07-29T10:41:06;25.50;96.80
43225;DHT22;28834;48.720;9.208;2022-07-29T10:43:53;25.40;96.90
43225;DHT22;28834;48.720;9.208;2022-07-29T10:46:20;25.30;95.50
43225;DHT22;28834;48.720;9.208;2022-07-29T10:51:52;25.10;98.30
43225;DHT22;28834;48.720;9.208;2022-07-29T10:54:36;25.00;96.60
43225;DHT22;28834;48.720;9.208;2022-07-29T10:57:13;25.00;96.90
43225;DHT22;28834;48.720;9.208;2022-07-29T11:00:25;24.80;96.60
43225;DHT22;28834;48.720;9.208;2022-07-29T11:02:40;24.70;98.50
43225;DHT22;28834;48.720;9.208;2022-07-29T11:05:08;24.50;99.90
43225;DHT22;28834;48.720;9.208;2022-07-29T11:07:35;24.20;99.90
43225;DHT22;28834;48.720;9.208;2022-07-29T11:15:08;22.80;99.90
43225;DHT22;28834;48.720;9.208;2022-07-29T11:23:25;20.10;99.90
43225;DHT22;28834;48.720;9.208;2022-07-29T11:28:59;18.90;99.90
43225;DHT22;28834;48.720;9.208;2022-07-29T11:31:39;18.60;99.90
43225;DHT22;28834;48.720;9.208;2022-07-29T11:40:25;17.80;99.90
43225;DHT22;28834;48.720;9.208;2022-07-29T11:45:12;17.60;99.90
43225;DHT22;28834;48.720;9.208;2022-07-29T11:47:41;17.50;99.90
43225;DHT22;28834;48.720;9.208;2022-07-29T11:50:10;17.40;99.90
43225;DHT22;28834;48.720;9.208;2022-07-29T11:52:41;17.40;99.90
43225;DHT22;28834;48.720;9.208;2022-07-29T11:55:18;17.40;99.90
43225;DHT22;28834;48.720;9.208;2022-07-29T11:57:49;17.30;99.90
43225;DHT22;28834;48.720;9.208;2022-07-29T12:00:41;17.30;99.90
43225;DHT22;28834;48.720;9.208;2022-07-29T12:03:10;17.30;99.90
43225;DHT22;28834;48.720;9.208;2022-07-29T12:05:40;17.30;99.90
43225;DHT22;28834;48.720;9.208;2022-07-29T12:08:07;17.30;99.90
43225;DHT22;28834;48.720;9.208;2022-07-29T12:10:33;17.30;99.90
43225;DHT22;28834;48.720;9.208;2022-07-29T12:12:59;17.30;99.90
43225;DHT22;28834;48.720;9.208;2022-07-29T12:15:24;17.30;99.90
43225;DHT22;28834;48.720;9.208;2022-07-29T12:17:51;17.40;99.90
43225;DHT22;28834;48.720;9.208;2022-07-29T12:20:28;17.50;99.90
43225;DHT22;28834;48.720;9.208;2022-07-29T12:22:55;17.60;99.90
43225;DHT22;28834;48.720;9.208;2022-07-29T12:25:22;17.70;99.90
43225;DHT22;28834;48.720;9.208;2022-07-29T12:27:57;17.70;99.90
43225;DHT22;28834;48.720;9.208;2022-07-29T12:30:38;17.80;99.90
43225;DHT22;28834;48.720;9.208;2022-07-29T12:33:26;17.80;99.90
43225;DHT22;28834;48.720;9.208;2022-07-29T12:35:58;17.90;99.90
43225;DHT22;28834;48.720;9.208;2022-07-29T12:38:24;18.00;99.90
43225;DHT22;28834;48.720;9.208;2022-07-29T12:40:52;18.00;99.90
43225;DHT22;28834;48.720;9.208;2022-07-29T12:43:23;18.10;99.90
43225;DHT22;28834;48.720;9.208;2022-07-29T12:45:51;18.10;99.90
43225;DHT22;28834;48.720;9.208;2022-07-29T12:48:38;18.20;99.90
43225;DHT22;28834;48.720;9.208;2022-07-29T12:51:05;18.30;99.90
43225;DHT22;28834;48.720;9.208;2022-07-29T12:53:32;18.40;99.90
43225;DHT22;28834;48.720;9.208;2022-07-29T12:55:58;18.50;99.90
43225;DHT22;28834;48.720;9.208;2022-07-29T12:58:30;18.50;99.90
43225;DHT22;28834;48.720;9.208;2022-07-29T13:01:17;18.60;99.90
43225;DHT22;28834;48.720;9.208;2022-07-29T13:03:52;18.80;99.90
43225;DHT22;28834;48.720;9.208;2022-07-29T13:06:40;18.80;99.90
43225;DHT22;28834;48.720;9.208;2022-07-29T13:09:15;18.90;99.90
43225;DHT22;28834;48.720;9.208;2022-07-29T13:11:49;18.90;99.90
43225;DHT22;28834;48.720;9.208;2022-07-29T13:14:38;18.90;99.90
43225;DHT22;28834;48.720;9.208;2022-07-29T13:22:08;19.10;99.90
43225;DHT22;28834;48.720;9.208;2022-07-29T13:24:34;19.00;99.90
43225;DHT22;28834;48.720;9.208;2022-07-29T13:26:59;19.00;99.90
43225;DHT22;28834;48.720;9.208;2022-07-29T13:29:25;18.90;99.90
43225;DHT22;28834;48.720;9.208;2022-07-29T13:31:52;18.90;99.90
43225;DHT22;28834;48.720;9.208;2022-07-29T13:34:17;18.90;99.90
43225;DHT22;28834;48.720;9.208;2022-07-29T13:36:44;18.90;99.90
43225;DHT22;28834;48.720;9.208;2022-07-29T13:39:10;18.90;99.90
43225;DHT22;28834;48.720;9.208;2022-07-29T13:41:36;19.00;99.90
43225;DHT22;28834;48.720;9.208;2022-07-29T13:44:02;19.00;99.90
43225;DHT22;28834;48.720;9.208;2022-07-29T13:46:28;19.10;99.90
43225;DHT22;28834;48.720;9.208;2022-07-29T13:48:53;19.10;99.90
43225;DHT22;28834;48.720;9.208;2022-07-29T13:51:19;19.20;99.90
43225;DHT22;28834;48.720;9.208;2022-07-29T13:53:44;19.10;99.90
43225;DHT22;28834;48.720;9.208;2022-07-29T13:56:10;19.20;99.90
43225;DHT22;28834;48.720;9.208;2022-07-29T13:58:35;19.20;99.90
43225;DHT22;28834;48.720;9.208;2022-07-29T14:01:01;19.30;99.90
43225;DHT22;28834;48.720;9.208;2022-07-29T14:03:27;19.40;99.90
43225;DHT22;28834;48.720;9.208;2022-07-29T14:05:53;19.50;99.90
43225;DHT22;28834;48.720;9.208;2022-07-29T14:08:18;19.60;99.90
43225;DHT22;28834;48.720;9.208;2022-07-29T14:10:44;19.70;99.90
43225;DHT22;28834;48.720;9.208;2022-07-29T14:13:10;19.90;99.90
43225;DHT22;28834;48.720;9.208;2022-07-29T14:15:35;20.00;99.90
43225;DHT22;28834;48.720;9.208;2022-07-29T14:18:01;20.10;99.90
43225;DHT22;28834;48.720;9.208;2022-07-29T14:20:26;20.20;99.90
43225;DHT22;28834;48.720;9.208;2022-07-29T14:22:55;20.20;99.90
43225;DHT22;28834;48.720;9.208;2022-07-29T14:25:20;20.30;99.90
43225;DHT22;28834;48.720;9.208;2022-07-29T14:27:46;20.30;99.90
43225;DHT22;28834;48.720;9.208;2022-07-29T14:30:12;20.40;99.90
43225;DHT22;28834;48.720;9.208;2022-07-29T14:32:37;20.30;99.90
43225;DHT22;28834;48.720;9.208;2022-07-29T14:35:04;20.40;99.90
43225;DHT22;28834;48.720;9.208;2022-07-29T14:37:29;20.50;99.90
43225;DHT22;28834;48.720;9.208;2022-07-29T14:39:55;20.50;99.90
43225;DHT22;28834;48.720;9.208;2022-07-29T14:42:27;20.60;99.90
43225;DHT22;28834;48.720;9.208;2022-07-29T14:44:53;20.70;99.90
43225;DHT22;28834;48.720;9.208;2022-07-29T14:47:19;20.80;99.90
43225;DHT22;28834;48.720;9.208;2022-07-29T14:49:44;20.70;99.90
43225;DHT22;28834;48.720;9.208;2022-07-29T14:52:10;20.70;99.90
43225;DHT22;28834;48.720;9.208;2022-07-29T14:54:35;20.80;99.90
43225;DHT22;28834;48.720;9.208;2022-07-29T14:57:01;20.70;99.90
43225;DHT22;28834;48.720;9.208;2022-07-29T14:59:27;20.60;99.90
43225;DHT22;28834;48.720;9.208;2022-07-29T15:01:52;20.60;99.90
43225;DHT22;28834;48.720;9.208;2022-07-29T15:04:18;20.70;99.90
43225;DHT22;28834;48.720;9.208;2022-07-29T15:06:44;20.70;99.90
43225;DHT22;28834;48.720;9.208;2022-07-29T15:09:09;20.70;99.90
43225;DHT22;28834;48.720;9.208;2022-07-29T15:11:35;20.70;99.90
43225;DHT22;28834;48.720;9.208;2022-07-29T15:14:01;20.80;99.90
43225;DHT22;28834;48.720;9.208;2022-07-29T15:16:26;20.80;99.90
43225;DHT22;28834;48.720;9.208;2022-07-29T15:18:52;20.80;99.90
43225;DHT22;28834;48.720;9.208;2022-07-29T15:21:17;20.80;99.90
43225;DHT22;28834;48.720;9.208;2022-07-29T15:23:43;20.80;99.90
43225;DHT22;28834;48.720;9.208;2022-07-29T15:26:09;20.70;99.90
43225;DHT22;28834;48.720;9.208;2022-07-29T15:28:35;20.60;99.90
43225;DHT22;28834;48.720;9.208;2022-07-29T15:31:00;20.60;99.90
43225;DHT22;28834;48.720;9.208;2022-07-29T15:33:26;20.50;99.90
43225;DHT22;28834;48.720;9.208;2022-07-29T15:35:51;20.60;99.90
43225;DHT22;28834;48.720;9.208;2022-07-29T15:38:17;20.50;99.90
43225;DHT22;28834;48.720;9.208;2022-07-29T15:40:43;20.50;99.90
43225;DHT22;28834;48.720;9.208;2022-07-29T15:43:09;20.50;99.90
43225;DHT22;28834;48.720;9.208;2022-07-29T15:45:44;20.50;99.90
43225;DHT22;28834;48.720;9.208;2022-07-29T15:48:29;20.50;99.90
43225;DHT22;28834;48.720;9.208;2022-07-29T15:50:55;20.50;99.90
43225;DHT22;28834;48.720;9.208;2022-07-29T15:53:20;20.50;99.90
43225;DHT22;28834;48.720;9.208;2022-07-29T15:55:46;20.60;99.90
43225;DHT22;28834;48.720;9.208;2022-07-29T15:58:11;20.60;99.90
43225;DHT22;28834;48.720;9.208;2022-07-29T16:00:37;20.60;99.90
43225;DHT22;28834;48.720;9.208;2022-07-29T16:03:02;20.70;99.90
43225;DHT22;28834;48.720;9.208;2022-07-29T16:05:28;20.70;99.90
43225;DHT22;28834;48.720;9.208;2022-07-29T16:07:54;20.80;99.90
43225;DHT22;28834;48.720;9.208;2022-07-29T16:10:20;20.70;99.90
43225;DHT22;28834;48.720;9.208;2022-07-29T16:12:45;20.80;99.90
43225;DHT22;28834;48.720;9.208;2022-07-29T16:15:11;20.80;99.90
43225;DHT22;28834;48.720;9.208;2022-07-29T16:17:37;20.80;99.90
43225;DHT22;28834;48.720;9.208;2022-07-29T16:20:04;20.80;99.90
43225;DHT22;28834;48.720;9.208;2022-07-29T16:22:30;20.80;99.90
43225;DHT22;28834;48.720;9.208;2022-07-29T16:24:56;20.80;99.90
43225;DHT22;28834;48.720;9.208;2022-07-29T16:27:21;20.80;99.90